»·PEaware :: VIR900 EGLL-RJAA

VIR900 :: EGLL-RJAA

FLIGHT INFORMATION

Flight Status: Arrived
Operator:
Virgin Atlantic Airways
More flights by this operator :: More flights under this callsign
Pilot: Robby H. (353)
Aircraft: AIRBUS A340-300
(A343)
More flights by this aircraft type
Origin: EGLL Heathrow
United Kingdom
Destination: RJAA New Tokyo Intl (Narita)
Japan
More flights between these airports :: More routes between these airports
Route: DIRECT
File this flight plan on PilotEdge
Remarks: www.airhaul.net / V /
Altitude:
(Current/Filed)
31,000ft
Speed:
(Current/Filed)
510kts
Departed: 13-Jun-12 09:32 AM
Arrived: 13-Jun-12 07:29 PM
Distance/Time
Traveled:
5174nm/9:56
Distance/Time
To Go:
Arrived

Flight Plot

Page will automatically refresh every two minutes.


Map Options




Map Legend


Flown Route
Filed Route
Departure Airport
Arrival Airport
Navaid (VOR, NDB)
Fix

Horizontal Profiles

Position Reports

Time Latitude Longitude Heading Altitude Ground
Speed
13-Jun-12 09:30 51.477642 -0.434844 269 94ft 2kts
13-Jun-12 09:31 51.477390 -0.485510 269 95ft 212kts
13-Jun-12 09:32 51.481008 -0.581704 279 2364ft 214kts
13-Jun-12 09:33 51.500834 -0.685514 305 3976ft 307kts
13-Jun-12 09:34 51.597275 -0.692098 31 5629ft 452kts
13-Jun-12 09:35 51.695347 -0.536441 47 7481ft 491kts
13-Jun-12 09:36 51.768523 -0.393849 48 9150ft 344kts
13-Jun-12 09:37 51.820296 -0.290084 47 9987ft 276kts
13-Jun-12 09:38 51.868245 -0.194232 47 10926ft 297kts
13-Jun-12 09:39 51.930492 -0.072487 45 12022ft 402kts
13-Jun-12 09:40 52.021524 0.060530 35 13072ft 486kts
13-Jun-12 09:41 52.138991 0.195862 31 14110ft 532kts
13-Jun-12 09:42 52.265095 0.329488 30 15119ft 540kts
13-Jun-12 09:43 52.392488 0.461118 29 16120ft 539kts
13-Jun-12 09:44 52.519575 0.591588 29 17119ft 537kts
13-Jun-12 09:45 52.646478 0.721927 29 18119ft 534kts
13-Jun-12 09:46 52.773000 0.852336 29 19122ft 531kts
13-Jun-12 09:47 52.897003 0.980793 29 20110ft 529kts
13-Jun-12 09:48 53.021567 1.110580 29 21108ft 526kts
13-Jun-12 09:49 53.145459 1.240483 29 22108ft 523kts
13-Jun-12 09:50 53.268507 1.370378 29 23108ft 519kts
13-Jun-12 09:51 53.390296 1.499812 29 24105ft 516kts
13-Jun-12 09:52 53.511324 1.629298 29 24951ft 516kts
13-Jun-12 09:53 53.633610 1.760925 30 25001ft 525kts
13-Jun-12 09:54 53.756344 1.893994 30 25000ft 528kts
13-Jun-12 09:55 53.879671 2.028702 30 25000ft 528kts
13-Jun-12 09:56 54.003342 2.164767 30 25000ft 529kts
13-Jun-12 09:58 54.252082 2.441417 30 25000ft 529kts
13-Jun-12 09:59 54.354377 2.556365 30 25000ft 529kts
13-Jun-12 10:00 54.477812 2.695995 30 25000ft 529kts
13-Jun-12 10:01 54.600770 2.836109 30 25000ft 529kts
13-Jun-12 10:02 54.723642 2.977159 31 25000ft 529kts
13-Jun-12 10:03 54.846826 3.119619 31 25000ft 529kts
13-Jun-12 10:04 54.969363 3.262390 31 25000ft 529kts
13-Jun-12 10:05 55.091275 3.405498 31 25000ft 529kts
13-Jun-12 10:06 55.213642 3.550222 31 25000ft 529kts
13-Jun-12 10:07 55.336554 3.696695 31 25000ft 529kts
13-Jun-12 10:08 55.458914 3.843625 31 25000ft 529kts
13-Jun-12 10:09 55.580164 3.990334 31 25000ft 529kts
13-Jun-12 10:10 55.702051 4.138948 32 25000ft 529kts
13-Jun-12 10:11 55.823533 4.288214 32 25000ft 530kts
13-Jun-12 10:12 55.944900 4.438498 32 25000ft 530kts
13-Jun-12 10:13 56.066374 4.590090 32 25000ft 530kts
13-Jun-12 10:14 56.187258 4.742132 32 25000ft 530kts
13-Jun-12 10:15 56.306685 4.893516 32 25000ft 530kts
13-Jun-12 10:16 56.428821 5.049565 33 25000ft 530kts
13-Jun-12 10:17 56.548507 5.203703 33 25000ft 530kts
13-Jun-12 10:18 56.669453 5.360713 33 25000ft 530kts
13-Jun-12 10:19 56.789417 5.517703 33 25000ft 530kts
13-Jun-12 10:20 56.907965 5.674086 33 25000ft 530kts
13-Jun-12 10:21 57.028161 5.833929 33 25000ft 530kts
13-Jun-12 10:22 57.148761 5.995627 33 25000ft 530kts
13-Jun-12 10:23 57.268437 6.157410 33 25000ft 530kts
13-Jun-12 10:24 57.387537 6.319746 34 25000ft 530kts
13-Jun-12 10:25 57.505585 6.481979 34 25000ft 530kts
13-Jun-12 10:26 57.624072 6.646163 34 25000ft 530kts
13-Jun-12 10:27 57.743739 6.813378 34 25000ft 530kts
13-Jun-12 10:28 57.862316 6.980474 34 25000ft 531kts
13-Jun-12 10:29 57.980874 7.148962 34 25000ft 531kts
13-Jun-12 10:30 58.098419 7.317430 34 25000ft 531kts
13-Jun-12 10:31 58.216304 7.487833 35 25000ft 531kts
13-Jun-12 10:32 58.333943 7.659342 35 25000ft 531kts
13-Jun-12 10:33 58.450664 7.830982 35 25000ft 531kts
13-Jun-12 10:34 58.566928 8.003427 35 25000ft 531kts
13-Jun-12 10:35 58.685157 8.180322 35 25000ft 531kts
13-Jun-12 10:36 58.781607 8.325795 35 25000ft 531kts
13-Jun-12 10:37 58.898431 8.503417 35 25000ft 531kts
13-Jun-12 10:38 59.014855 8.682005 36 25000ft 531kts
13-Jun-12 10:39 59.130735 8.861341 36 25000ft 531kts
13-Jun-12 10:40 59.246102 9.041481 36 25000ft 531kts
13-Jun-12 10:41 59.361748 9.223681 36 25000ft 531kts
13-Jun-12 10:42 59.476994 9.406896 36 25000ft 531kts
13-Jun-12 10:43 59.592576 9.592321 36 25000ft 532kts
13-Jun-12 10:44 59.707434 9.778277 37 24999ft 532kts
13-Jun-12 10:45 59.822101 9.965632 37 24999ft 532kts
13-Jun-12 10:46 59.936308 10.153960 37 24999ft 532kts
13-Jun-12 10:47 60.050233 10.343569 37 24999ft 532kts
13-Jun-12 10:48 60.165044 10.536445 37 24999ft 532kts
13-Jun-12 10:49 60.278568 10.728959 37 24999ft 532kts
13-Jun-12 10:50 60.390142 10.919940 37 24999ft 532kts
13-Jun-12 10:51 60.504494 11.117536 38 24999ft 532kts
13-Jun-12 10:52 60.616669 11.313227 38 24999ft 532kts
13-Jun-12 10:53 60.729746 11.512390 38 24999ft 532kts
13-Jun-12 10:54 60.841185 11.710561 38 24999ft 532kts
13-Jun-12 10:55 60.953296 11.911859 39 24999ft 532kts
13-Jun-12 10:56 61.065318 12.114963 39 24999ft 532kts
13-Jun-12 10:57 61.175644 12.316957 39 24999ft 533kts
13-Jun-12 10:58 61.287285 12.523375 39 24999ft 533kts
13-Jun-12 10:59 61.398511 12.731075 39 24999ft 533kts
13-Jun-12 11:00 61.509409 12.940241 40 24999ft 533kts
13-Jun-12 11:01 61.618695 13.148429 40 24999ft 533kts
13-Jun-12 11:02 61.729599 13.361839 40 24999ft 533kts
13-Jun-12 11:03 61.837279 13.571137 40 24999ft 533kts
13-Jun-12 11:04 61.948066 13.788674 40 24999ft 533kts
13-Jun-12 11:05 62.056686 14.004157 40 24999ft 533kts
13-Jun-12 11:06 62.164997 14.221245 41 25000ft 533kts
13-Jun-12 11:07 62.273195 14.440353 41 25000ft 533kts
13-Jun-12 11:08 62.381016 14.660983 41 25000ft 533kts
13-Jun-12 11:09 62.488448 14.883126 41 25000ft 533kts
13-Jun-12 11:10 62.595513 15.106845 41 25000ft 534kts
13-Jun-12 11:12 62.789757 15.518836 42 25000ft 534kts
13-Jun-12 11:13 62.896660 15.749025 42 25000ft 534kts
13-Jun-12 11:14 63.003319 15.981181 42 25000ft 534kts
13-Jun-12 11:15 63.108852 16.213397 42 25000ft 534kts
13-Jun-12 11:16 63.214181 16.447699 43 25000ft 534kts
13-Jun-12 11:17 63.318826 16.683042 43 25000ft 534kts
13-Jun-12 11:18 63.422835 16.919536 43 24999ft 534kts
13-Jun-12 11:19 63.526459 17.157772 43 24999ft 534kts
13-Jun-12 11:20 63.630399 17.399407 43 24999ft 534kts
13-Jun-12 11:21 63.733479 17.641749 44 24999ft 534kts
13-Jun-12 11:22 63.835795 17.885017 44 24999ft 534kts
13-Jun-12 11:23 63.938519 18.132040 44 24999ft 535kts
13-Jun-12 11:24 64.040691 18.380562 45 24999ft 535kts
13-Jun-12 11:25 64.141031 18.627427 45 24999ft 535kts
13-Jun-12 11:26 64.241539 18.877553 45 24999ft 535kts
13-Jun-12 11:27 64.344125 19.135850 45 24999ft 535kts
13-Jun-12 11:28 64.443963 19.390209 46 25000ft 535kts
13-Jun-12 11:29 64.544183 19.648558 46 25000ft 535kts
13-Jun-12 11:30 64.642795 19.905789 46 25000ft 535kts
13-Jun-12 11:31 64.741825 20.167188 46 25000ft 535kts
13-Jun-12 11:32 64.840991 20.432124 46 25000ft 535kts
13-Jun-12 11:33 64.938162 20.694872 47 25000ft 535kts
13-Jun-12 11:34 65.035841 20.962220 47 25000ft 535kts
13-Jun-12 11:35 65.133485 21.232767 47 25000ft 536kts
13-Jun-12 11:36 65.230818 21.505817 47 25000ft 536kts
13-Jun-12 11:37 65.326307 21.777037 48 24999ft 536kts
13-Jun-12 11:38 65.422186 22.052767 48 24999ft 536kts
13-Jun-12 11:39 65.517177 22.329401 48 24999ft 536kts
13-Jun-12 11:40 65.612355 22.610104 48 24999ft 536kts
13-Jun-12 11:41 65.705696 22.888916 49 24999ft 536kts
13-Jun-12 11:42 65.800521 23.175812 49 24999ft 536kts
13-Jun-12 11:43 65.893550 23.460959 49 25000ft 536kts
13-Jun-12 11:44 65.985708 23.747115 49 25000ft 536kts
13-Jun-12 11:45 66.078352 24.038579 50 25000ft 536kts
13-Jun-12 11:46 66.169881 24.330395 50 25216ft 532kts
13-Jun-12 11:47 66.258843 24.617958 50 26189ft 522kts
13-Jun-12 11:48 66.346544 24.905145 50 27189ft 516kts
13-Jun-12 11:49 66.432697 25.190893 51 28188ft 512kts
13-Jun-12 11:50 66.517896 25.477148 51 29189ft 508kts
13-Jun-12 11:51 66.601923 25.763141 51 30190ft 504kts
13-Jun-12 11:52 66.684678 26.048449 52 30975ft 504kts
13-Jun-12 11:53 66.753593 26.288701 52 31001ft 513kts
13-Jun-12 11:54 66.838139 26.587068 52 31000ft 518kts
13-Jun-12 11:55 66.920153 26.880472 53 31000ft 519kts
13-Jun-12 11:56 67.003198 27.181656 53 31000ft 520kts
13-Jun-12 11:57 67.086413 27.487664 53 31000ft 520kts
13-Jun-12 11:58 67.168720 27.794599 53 30999ft 520kts
13-Jun-12 11:59 67.250161 28.102580 54 30999ft 520kts
13-Jun-12 12:00 67.331946 28.416287 54 30999ft 521kts
13-Jun-12 12:01 67.412199 28.728553 54 30999ft 521kts
13-Jun-12 12:02 67.492191 29.044287 54 31000ft 521kts
13-Jun-12 12:03 67.571621 29.362381 55 31000ft 521kts
13-Jun-12 12:04 67.650491 29.682876 55 31000ft 521kts
13-Jun-12 12:05 67.728697 30.005404 55 31000ft 521kts
13-Jun-12 12:06 67.805944 30.328728 56 31000ft 521kts
13-Jun-12 12:07 67.883517 30.658340 56 31000ft 521kts
13-Jun-12 12:08 67.959851 30.987645 56 31000ft 521kts
13-Jun-12 12:09 68.035385 31.318517 57 31000ft 521kts
13-Jun-12 12:10 68.110351 31.651987 57 31000ft 521kts
13-Jun-12 12:11 68.183369 31.981853 57 31000ft 522kts
13-Jun-12 12:12 68.258132 32.324926 58 31000ft 522kts
13-Jun-12 12:13 68.331306 32.666113 58 31000ft 522kts
13-Jun-12 12:14 68.403527 33.008304 58 31000ft 522kts
13-Jun-12 12:15 68.475037 33.352618 59 31000ft 522kts
13-Jun-12 12:16 68.545885 33.699358 59 31000ft 522kts
13-Jun-12 12:17 68.615495 34.045659 59 31000ft 522kts
13-Jun-12 12:18 68.685378 34.399154 60 31000ft 522kts
13-Jun-12 12:19 68.753856 34.751410 60 31000ft 522kts
13-Jun-12 12:20 68.822447 35.110313 60 31000ft 522kts
13-Jun-12 12:21 68.889672 35.468175 61 31000ft 522kts
13-Jun-12 12:22 68.956196 35.828516 61 31000ft 523kts
13-Jun-12 12:23 69.021477 36.188354 61 31000ft 523kts
13-Jun-12 12:24 69.085992 36.550305 62 31000ft 523kts
13-Jun-12 12:25 69.151022 36.921786 62 31000ft 523kts
13-Jun-12 12:26 69.208972 37.258645 62 31000ft 523kts
13-Jun-12 12:27 69.277086 37.661935 63 31000ft 523kts
13-Jun-12 12:28 69.339147 38.036581 63 31000ft 523kts
13-Jun-12 12:29 69.399976 38.410790 63 31000ft 523kts
13-Jun-12 12:30 69.460424 38.789797 64 31000ft 523kts
13-Jun-12 12:31 69.519381 39.166665 64 31000ft 523kts
13-Jun-12 12:32 69.578441 39.551644 65 31000ft 523kts
13-Jun-12 12:35 69.738659 40.636667 66 31000ft 524kts
13-Jun-12 12:36 69.795538 41.037312 66 30999ft 524kts
13-Jun-12 12:37 69.849483 41.425430 67 31000ft 524kts
13-Jun-12 12:38 69.902814 41.817335 67 31000ft 524kts
13-Jun-12 12:39 69.955617 42.213785 67 31000ft 524kts
13-Jun-12 12:40 70.008386 42.618867 68 31000ft 524kts
13-Jun-12 12:41 70.059364 43.019084 68 31000ft 524kts
13-Jun-12 12:42 70.109479 43.421573 68 31000ft 524kts
13-Jun-12 12:43 70.158686 43.825988 69 31000ft 524kts
13-Jun-12 12:44 70.206993 44.232460 69 31000ft 524kts
13-Jun-12 12:45 70.254546 44.642285 70 31000ft 524kts
13-Jun-12 12:46 70.301037 45.052877 70 31000ft 524kts
13-Jun-12 12:47 70.345966 45.459591 71 31000ft 524kts
13-Jun-12 12:48 70.389832 45.866740 71 30999ft 525kts
13-Jun-12 12:49 70.434655 46.293756 71 31000ft 525kts
13-Jun-12 12:50 70.477458 46.712562 72 31000ft 525kts
13-Jun-12 12:51 70.519183 47.132011 72 31000ft 525kts
13-Jun-12 12:52 70.560111 47.554959 73 31000ft 525kts
13-Jun-12 12:53 70.600032 47.979359 73 31000ft 525kts
13-Jun-12 12:54 70.638827 48.403880 73 31000ft 525kts
13-Jun-12 12:55 70.676519 48.828714 74 31000ft 525kts
13-Jun-12 12:56 70.713634 49.259948 74 31000ft 525kts
13-Jun-12 12:57 70.749335 49.687939 75 31000ft 525kts
13-Jun-12 12:58 70.784065 50.117752 75 31000ft 525kts
13-Jun-12 12:59 70.818119 50.553368 75 31000ft 525kts
13-Jun-12 13:00 70.851000 50.988406 76 31000ft 525kts
13-Jun-12 13:01 70.882391 51.423708 76 30979ft 526kts
13-Jun-12 13:02 70.913639 51.860644 76 30993ft 525kts
13-Jun-12 13:03 70.943705 52.297151 77 30986ft 526kts
13-Jun-12 13:04 70.972791 52.738383 78 30973ft 526kts
13-Jun-12 13:05 71.000712 53.181138 78 30973ft 526kts
13-Jun-12 13:06 71.027422 53.623742 79 30965ft 526kts
13-Jun-12 13:07 71.053044 54.067685 79 30956ft 526kts
13-Jun-12 13:08 71.077568 54.512425 79 30952ft 526kts
13-Jun-12 13:09 71.101031 54.958543 80 30944ft 526kts
13-Jun-12 13:10 71.123651 55.410403 80 30937ft 526kts
13-Jun-12 13:11 71.144821 55.855687 81 30933ft 526kts
13-Jun-12 13:12 71.164986 56.303199 81 30924ft 526kts
13-Jun-12 13:13 71.181301 56.684717 82 30917ft 526kts
13-Jun-12 13:14 71.199433 57.132686 82 30912ft 526kts
13-Jun-12 13:15 71.216712 57.587383 82 30904ft 526kts
13-Jun-12 13:16 71.232798 58.040249 83 30897ft 526kts
13-Jun-12 13:17 71.247834 58.495106 84 30890ft 526kts
13-Jun-12 13:18 71.261638 58.946219 84 30883ft 527kts
13-Jun-12 13:19 71.274528 59.404153 84 30876ft 527kts
13-Jun-12 13:20 71.286003 59.850414 85 30870ft 527kts
13-Jun-12 13:21 71.296826 60.315489 85 30862ft 527kts
13-Jun-12 13:22 71.306325 60.772131 86 30855ft 527kts
13-Jun-12 13:23 71.314715 61.228974 86 30849ft 527kts
13-Jun-12 13:24 71.321974 61.684608 87 30842ft 527kts
13-Jun-12 13:25 71.328179 62.144206 87 30835ft 527kts
13-Jun-12 13:26 71.333274 62.605088 87 30828ft 527kts
13-Jun-12 13:27 71.337225 63.063510 88 30821ft 527kts
13-Jun-12 13:28 71.340047 63.519047 88 30814ft 527kts
13-Jun-12 13:29 71.341770 63.974659 89 30806ft 527kts
13-Jun-12 13:30 71.342397 64.437729 89 30799ft 527kts
13-Jun-12 13:31 71.341892 64.899774 90 30792ft 527kts
13-Jun-12 13:32 71.340274 65.358263 90 30785ft 527kts
13-Jun-12 13:33 71.337534 65.818061 91 30779ft 527kts
13-Jun-12 13:34 71.333678 66.277456 91 30771ft 527kts
13-Jun-12 13:35 71.328717 66.735729 92 30765ft 527kts
13-Jun-12 13:36 71.322618 67.195534 92 30758ft 527kts
13-Jun-12 13:37 71.315507 67.648700 92 30751ft 527kts
13-Jun-12 13:38 71.307132 68.110678 93 30744ft 527kts
13-Jun-12 13:39 71.297722 68.567864 93 30737ft 527kts
13-Jun-12 13:40 71.287173 69.025892 94 30730ft 527kts
13-Jun-12 13:41 71.275533 69.482655 94 30723ft 527kts
13-Jun-12 13:42 71.262855 69.936524 95 30716ft 527kts
13-Jun-12 13:43 71.249067 70.390298 95 30709ft 527kts
13-Jun-12 13:44 71.233995 70.849038 96 30702ft 528kts
13-Jun-12 13:45 71.217952 71.303044 96 30696ft 528kts
13-Jun-12 13:46 71.200838 71.755670 97 30689ft 528kts
13-Jun-12 13:47 71.182608 72.208115 97 30681ft 528kts
13-Jun-12 13:48 71.163323 72.658945 98 30675ft 528kts
13-Jun-12 13:49 71.142920 73.109608 98 30667ft 528kts
13-Jun-12 13:50 71.121377 73.560500 98 30661ft 528kts
13-Jun-12 13:51 71.098915 74.007173 99 30654ft 528kts
13-Jun-12 13:52 71.075200 74.456314 99 30646ft 528kts
13-Jun-12 13:53 71.054953 74.823735 100 30641ft 528kts
13-Jun-12 13:54 71.029205 75.272076 100 30634ft 528kts
13-Jun-12 13:55 71.002467 75.717845 100 30627ft 528kts
13-Jun-12 13:56 70.974755 76.160938 101 30620ft 528kts
13-Jun-12 13:57 70.946015 76.602408 101 30613ft 528kts
13-Jun-12 13:58 70.916199 77.042958 102 30606ft 528kts
13-Jun-12 13:59 70.885349 77.482071 102 30599ft 528kts
13-Jun-12 14:00 70.853356 77.921177 103 30592ft 528kts
13-Jun-12 14:01 70.820451 78.357223 103 30585ft 528kts
13-Jun-12 14:02 70.786366 78.793697 104 30578ft 528kts
13-Jun-12 14:03 70.752114 79.218191 104 30571ft 528kts
13-Jun-12 14:04 70.715404 79.658680 104 30563ft 528kts
13-Jun-12 14:05 70.678397 80.088949 105 30557ft 528kts
13-Jun-12 14:06 70.640399 80.517488 105 30550ft 528kts
13-Jun-12 14:07 70.601300 80.945454 106 30542ft 527kts
13-Jun-12 14:08 70.561280 81.370959 106 30536ft 527kts
13-Jun-12 14:09 70.520330 81.794130 106 30528ft 527kts
13-Jun-12 14:10 70.478415 82.215465 107 30521ft 527kts
13-Jun-12 14:11 70.435319 82.637039 107 30515ft 527kts
13-Jun-12 14:12 70.391422 83.055204 108 30507ft 527kts
13-Jun-12 14:13 70.346420 83.472845 108 30500ft 527kts
13-Jun-12 14:14 70.300605 83.887355 108 30494ft 527kts
13-Jun-12 14:15 70.253987 84.298706 109 30486ft 527kts
13-Jun-12 14:16 70.206148 84.710637 110 30479ft 527kts
13-Jun-12 14:17 70.157185 85.122149 110 30472ft 527kts
13-Jun-12 14:18 70.108304 85.523463 110 30465ft 527kts
13-Jun-12 14:19 70.057679 85.929636 111 30458ft 527kts
13-Jun-12 14:20 70.005912 86.335501 111 30451ft 527kts
13-Jun-12 14:21 69.953864 86.734510 111 30444ft 527kts
13-Jun-12 14:22 69.900282 87.136253 112 30437ft 527kts
13-Jun-12 14:23 69.846771 87.528887 112 30430ft 527kts
13-Jun-12 14:24 69.791103 87.928655 112 30423ft 527kts
13-Jun-12 14:25 69.735422 88.320161 113 30416ft 527kts
13-Jun-12 14:26 69.678905 88.709371 113 30409ft 527kts
13-Jun-12 14:27 69.620967 89.100295 114 30402ft 527kts
13-Jun-12 14:28 69.562942 89.483955 114 30394ft 527kts
13-Jun-12 14:29 69.503907 89.866655 114 30388ft 527kts
13-Jun-12 14:31 69.382127 90.633211 115 30373ft 527kts
13-Jun-12 14:32 69.331286 90.944623 116 30367ft 527kts
13-Jun-12 14:33 69.268865 91.320420 116 30361ft 527kts
13-Jun-12 14:34 69.205226 91.696474 116 30353ft 527kts
13-Jun-12 14:35 69.140982 92.069063 117 30346ft 527kts
13-Jun-12 14:36 69.075703 92.440797 117 30339ft 527kts
13-Jun-12 14:37 69.010092 92.807681 117 30332ft 527kts
13-Jun-12 14:38 68.943972 93.170915 118 30325ft 527kts
13-Jun-12 14:39 68.876799 93.533461 118 30318ft 527kts
13-Jun-12 14:40 68.810011 93.887770 118 30311ft 527kts
13-Jun-12 14:41 68.739980 94.252884 119 30303ft 527kts
13-Jun-12 14:42 68.671220 94.605301 119 30296ft 527kts
13-Jun-12 14:43 68.600614 94.961097 119 30289ft 527kts
13-Jun-12 14:44 68.529473 95.313659 120 30282ft 526kts
13-Jun-12 14:45 68.457618 95.663921 120 30275ft 526kts
13-Jun-12 14:46 68.385728 96.008622 120 30268ft 526kts
13-Jun-12 14:47 68.312268 96.355192 121 30261ft 526kts
13-Jun-12 14:48 68.238509 96.697581 121 30254ft 526kts
13-Jun-12 14:49 68.163994 97.038033 121 30247ft 526kts
13-Jun-12 14:50 68.089406 97.373468 122 30240ft 526kts
13-Jun-12 14:51 68.012805 97.712635 122 30232ft 526kts
13-Jun-12 14:52 67.936369 98.045822 122 30226ft 526kts
13-Jun-12 14:53 67.859204 98.377087 123 30218ft 526kts
13-Jun-12 14:54 67.781309 98.706411 123 30211ft 526kts
13-Jun-12 14:55 67.703425 99.030789 123 30204ft 526kts
13-Jun-12 14:56 67.623837 99.357335 124 30197ft 526kts
13-Jun-12 14:57 67.544265 99.679028 124 30190ft 526kts
13-Jun-12 14:58 67.463359 100.001347 124 30182ft 526kts
13-Jun-12 14:59 67.382629 100.318276 125 30176ft 526kts
13-Jun-12 15:00 67.300762 100.635059 125 30168ft 526kts
13-Jun-12 15:01 67.218538 100.948662 125 30160ft 526kts
13-Jun-12 15:02 67.136181 101.258361 125 30154ft 526kts
13-Jun-12 15:03 67.053298 101.565678 126 30147ft 526kts
13-Jun-12 15:04 66.968231 101.876701 126 30139ft 526kts
13-Jun-12 15:05 66.883346 102.182730 126 30132ft 526kts
13-Jun-12 15:06 66.798227 102.485403 127 30125ft 526kts
13-Jun-12 15:07 66.713497 102.782604 127 30118ft 526kts
13-Jun-12 15:08 66.626002 103.085386 127 30111ft 526kts
13-Jun-12 15:09 66.539156 103.381853 127 30104ft 526kts
13-Jun-12 15:10 66.452655 103.673240 128 30096ft 525kts
13-Jun-12 15:11 66.363797 103.968625 128 30090ft 525kts
13-Jun-12 15:12 66.275532 104.258156 128 30083ft 525kts
13-Jun-12 15:13 66.185964 104.548135 129 30075ft 525kts
13-Jun-12 15:14 66.096393 104.834347 129 30068ft 525kts
13-Jun-12 15:15 66.022467 105.067810 129 30062ft 525kts
13-Jun-12 15:16 65.931909 105.350459 129 30055ft 525kts
13-Jun-12 15:17 65.839686 105.634641 130 30048ft 525kts
13-Jun-12 15:18 65.748216 105.912918 130 30041ft 525kts
13-Jun-12 15:19 65.657994 106.184011 130 30033ft 525kts
13-Jun-12 15:20 65.563575 106.464171 130 30026ft 525kts
13-Jun-12 15:21 65.471551 106.733851 131 30019ft 525kts
13-Jun-12 15:22 65.378099 107.004361 131 30011ft 525kts
13-Jun-12 15:23 65.284371 107.272380 131 30005ft 525kts
13-Jun-12 15:24 65.188407 107.543461 131 29997ft 525kts
13-Jun-12 15:25 65.094427 107.805715 132 29990ft 525kts
13-Jun-12 15:26 64.997850 108.071994 132 29983ft 525kts
13-Jun-12 15:27 64.902352 108.332142 132 29976ft 525kts
13-Jun-12 15:28 64.812861 108.573162 132 29970ft 525kts
13-Jun-12 15:29 64.709112 108.849286 133 29962ft 525kts
13-Jun-12 15:30 64.613583 109.100494 133 29955ft 525kts
13-Jun-12 15:31 64.514028 109.359235 133 29948ft 525kts
13-Jun-12 15:32 64.416429 109.609958 133 29941ft 525kts
13-Jun-12 15:33 64.317294 109.861700 133 29934ft 525kts
13-Jun-12 15:34 64.218499 110.109720 134 29927ft 525kts
13-Jun-12 15:35 64.118899 110.356923 134 29920ft 525kts
13-Jun-12 15:36 64.019580 110.600666 134 29913ft 525kts
13-Jun-12 15:37 63.919154 110.844378 135 29906ft 524kts
13-Jun-12 15:38 63.818763 111.085285 135 29899ft 524kts
13-Jun-12 15:39 63.718947 111.322184 135 29892ft 524kts
13-Jun-12 15:40 63.616998 111.561482 135 29885ft 524kts
13-Jun-12 15:41 63.514734 111.798889 136 29878ft 524kts
13-Jun-12 15:42 63.412396 112.033872 136 29871ft 524kts
13-Jun-12 15:43 63.310326 112.265712 136 29864ft 524kts
13-Jun-12 15:44 63.207564 112.496621 136 29857ft 524kts
13-Jun-12 15:45 63.104126 112.726570 136 29850ft 524kts
13-Jun-12 15:46 63.000682 112.954085 137 29842ft 524kts
13-Jun-12 15:47 62.896522 113.180760 137 29835ft 524kts
13-Jun-12 15:48 62.792951 113.403792 137 29829ft 524kts
13-Jun-12 15:49 62.687804 113.627856 137 29822ft 524kts
13-Jun-12 15:50 62.582541 113.849833 137 29814ft 524kts
13-Jun-12 15:51 62.477292 114.069483 138 29807ft 524kts
13-Jun-12 15:52 62.371380 114.288244 138 29774ft 524kts
13-Jun-12 15:53 62.283113 114.468855 138 29793ft 524kts
13-Jun-12 15:54 62.177341 114.683271 138 29794ft 524kts
13-Jun-12 15:55 62.070475 114.897710 138 29774ft 524kts
13-Jun-12 15:56 61.963262 115.110686 138 29774ft 524kts
13-Jun-12 15:57 61.856198 115.321234 139 29768ft 524kts
13-Jun-12 15:58 61.748720 115.530499 139 29758ft 524kts
13-Jun-12 15:59 61.641742 115.736737 139 29752ft 524kts
13-Jun-12 16:00 61.533602 115.943179 139 29745ft 524kts
13-Jun-12 16:01 61.424247 116.149888 139 29738ft 524kts
13-Jun-12 16:02 61.315159 116.354076 139 29731ft 524kts
13-Jun-12 16:03 61.206131 116.556176 140 29724ft 524kts
13-Jun-12 16:04 61.096953 116.756602 140 29717ft 524kts
13-Jun-12 16:05 60.986970 116.956575 140 29710ft 524kts
13-Jun-12 16:06 60.877190 117.154274 140 29703ft 524kts
13-Jun-12 16:07 60.766605 117.351534 140 29695ft 524kts
13-Jun-12 16:08 60.656269 117.546491 140 29688ft 524kts
13-Jun-12 16:09 60.545579 117.740244 141 29681ft 524kts
13-Jun-12 16:10 60.434202 117.933378 141 29674ft 524kts
13-Jun-12 16:11 60.323717 118.123194 141 29667ft 523kts
13-Jun-12 16:12 60.211571 118.314084 141 29660ft 523kts
13-Jun-12 16:13 60.099392 118.503273 142 29653ft 523kts
13-Jun-12 16:14 59.988095 118.689263 142 29646ft 523kts
13-Jun-12 16:15 59.875438 118.875818 142 29638ft 523kts
13-Jun-12 16:16 59.763749 119.059104 142 29631ft 523kts
13-Jun-12 16:17 59.650559 119.243186 142 29625ft 523kts
13-Jun-12 16:18 59.536371 119.427219 142 29617ft 523kts
13-Jun-12 16:19 59.422685 119.608800 143 29611ft 523kts
13-Jun-12 16:20 59.309215 119.788431 143 29603ft 523kts
13-Jun-12 16:21 59.196212 119.965751 143 29596ft 523kts
13-Jun-12 16:22 59.081414 120.144310 143 29589ft 523kts
13-Jun-12 16:23 58.967568 120.319841 143 29582ft 523kts
13-Jun-12 16:24 58.852309 120.496009 143 29574ft 523kts
13-Jun-12 16:25 58.737260 120.670328 143 29568ft 523kts
13-Jun-12 16:26 58.622287 120.843036 144 29560ft 523kts
13-Jun-12 16:27 58.507091 121.014599 144 29553ft 523kts
13-Jun-12 16:28 58.410863 121.156794 144 29547ft 523kts
13-Jun-12 16:29 58.275803 121.354681 144 29539ft 523kts
13-Jun-12 16:30 58.179104 121.495165 144 29533ft 523kts
13-Jun-12 16:31 58.063974 121.661145 144 29526ft 523kts
13-Jun-12 16:32 57.946883 121.828545 144 29519ft 523kts
13-Jun-12 16:33 57.830854 121.993047 145 29512ft 523kts
13-Jun-12 16:34 57.713476 122.158084 145 29505ft 523kts
13-Jun-12 16:35 57.597348 122.320022 145 29498ft 523kts
13-Jun-12 16:36 57.479957 122.482384 145 29490ft 523kts
13-Jun-12 16:37 57.363950 122.641531 145 29483ft 523kts
13-Jun-12 16:38 57.246504 122.801354 145 29476ft 523kts
13-Jun-12 16:39 57.128190 122.961057 145 29469ft 523kts
13-Jun-12 16:40 57.009794 123.119583 145 29462ft 523kts
13-Jun-12 16:41 56.891270 123.277008 146 29455ft 523kts
13-Jun-12 16:42 56.773557 123.432114 146 29448ft 523kts
13-Jun-12 16:43 56.654430 123.587841 146 29440ft 523kts
13-Jun-12 16:44 56.535754 123.741755 146 29433ft 523kts
13-Jun-12 16:45 56.416587 123.895093 146 29426ft 523kts
13-Jun-12 16:46 56.297190 124.047527 146 29419ft 523kts
13-Jun-12 16:47 56.177715 124.198874 146 29411ft 523kts
13-Jun-12 16:48 56.058353 124.348908 146 29404ft 523kts
13-Jun-12 16:49 55.938808 124.498021 147 29397ft 523kts
13-Jun-12 16:50 55.819576 124.645607 147 29390ft 523kts
13-Jun-12 16:51 55.698876 124.793874 147 29383ft 523kts
13-Jun-12 16:52 55.578888 124.940146 147 29375ft 523kts
13-Jun-12 16:53 55.458975 125.085228 147 29369ft 523kts
13-Jun-12 16:54 55.338254 125.230191 148 29361ft 523kts
13-Jun-12 16:55 55.217240 125.374418 148 29354ft 523kts
13-Jun-12 16:56 55.096608 125.517123 148 29346ft 523kts
13-Jun-12 16:57 54.976116 125.658609 148 29339ft 523kts
13-Jun-12 16:58 54.854330 125.800563 148 29334ft 523kts
13-Jun-12 16:59 54.733517 125.940347 148 29325ft 523kts
13-Jun-12 17:00 54.611375 126.080640 148 29317ft 523kts
13-Jun-12 17:01 54.491497 126.217338 148 29312ft 523kts
13-Jun-12 17:02 54.368520 126.356559 148 29303ft 523kts
13-Jun-12 17:03 54.246723 126.493447 149 29296ft 523kts
13-Jun-12 17:04 54.124331 126.630021 149 29290ft 523kts
13-Jun-12 17:05 54.001771 126.765804 149 29282ft 523kts
13-Jun-12 17:06 53.880381 126.899340 149 29275ft 522kts
13-Jun-12 17:07 53.758296 127.032699 149 29268ft 522kts
13-Jun-12 17:08 53.637347 127.163897 149 29260ft 522kts
13-Jun-12 17:09 53.532179 127.277242 149 29254ft 522kts
13-Jun-12 17:10 53.409409 127.408704 149 29247ft 522kts
13-Jun-12 17:11 53.286420 127.539489 149 29240ft 522kts
13-Jun-12 17:12 53.163397 127.669408 149 29233ft 522kts
13-Jun-12 17:13 53.040865 127.797925 150 29226ft 522kts
13-Jun-12 17:14 52.916708 127.927257 150 29219ft 522kts
13-Jun-12 17:15 52.794032 128.054178 150 29211ft 522kts
13-Jun-12 17:16 52.669883 128.181755 150 29204ft 522kts
13-Jun-12 17:17 52.546140 128.308057 150 29196ft 522kts
13-Jun-12 17:18 52.422275 128.433637 150 29190ft 522kts
13-Jun-12 17:19 52.297757 128.559035 150 29183ft 522kts
13-Jun-12 17:20 52.173166 128.683672 150 29175ft 522kts
13-Jun-12 17:21 52.048849 128.807211 150 29168ft 522kts
13-Jun-12 17:22 51.924410 128.930057 150 29160ft 522kts
13-Jun-12 17:23 51.799400 129.052659 151 29153ft 522kts
13-Jun-12 17:24 51.675544 129.173338 151 29146ft 522kts
13-Jun-12 17:25 51.549953 129.294914 151 29139ft 522kts
13-Jun-12 17:26 51.426244 129.413897 151 29132ft 522kts
13-Jun-12 17:27 51.300456 129.534103 151 29125ft 522kts
13-Jun-12 17:28 51.174890 129.653326 151 29117ft 522kts
13-Jun-12 17:29 51.049594 129.771533 151 29110ft 522kts
13-Jun-12 17:30 50.923653 129.889595 151 29102ft 522kts
13-Jun-12 17:31 50.798214 130.006442 151 29095ft 522kts
13-Jun-12 17:32 50.672992 130.122357 151 29088ft 522kts
13-Jun-12 17:33 50.546391 130.238814 151 29081ft 522kts
13-Jun-12 17:34 50.421785 130.352723 152 29074ft 522kts
13-Jun-12 17:35 50.294906 130.467993 152 29066ft 522kts
13-Jun-12 17:36 50.170538 130.580287 152 29059ft 522kts
13-Jun-12 17:37 50.043099 130.694650 152 29052ft 522kts
13-Jun-12 17:38 49.915480 130.808467 152 29045ft 522kts
13-Jun-12 17:39 49.789193 130.920410 152 29038ft 522kts
13-Jun-12 17:40 49.662701 131.031854 152 29030ft 522kts
13-Jun-12 17:41 49.535998 131.142812 152 29023ft 522kts
13-Jun-12 17:42 49.410468 131.252086 152 29015ft 522kts
13-Jun-12 17:43 49.282059 131.363197 152 29008ft 522kts
13-Jun-12 17:44 49.155997 131.471628 152 29001ft 522kts
13-Jun-12 17:45 49.030620 131.578837 152 28993ft 522kts
13-Jun-12 17:46 48.901695 131.688432 152 28987ft 522kts
13-Jun-12 17:47 48.773694 131.796596 153 28980ft 522kts
13-Jun-12 17:48 48.645885 131.903967 153 28973ft 522kts
13-Jun-12 17:50 48.391335 132.115951 153 28959ft 522kts
13-Jun-12 17:51 48.284506 132.204190 153 28953ft 522kts
13-Jun-12 17:52 48.136898 132.325416 153 28944ft 522kts
13-Jun-12 17:53 48.028997 132.413525 153 28940ft 522kts
13-Jun-12 17:54 47.901140 132.517384 153 28931ft 522kts
13-Jun-12 17:55 47.773240 132.620690 153 28924ft 522kts
13-Jun-12 17:56 47.645038 132.723655 153 28915ft 522kts
13-Jun-12 17:57 47.516858 132.826028 153 28910ft 522kts
13-Jun-12 17:58 47.400047 132.918823 153 28905ft 522kts
13-Jun-12 17:59 47.260166 133.029328 153 28898ft 522kts
13-Jun-12 18:00 47.132149 133.129876 154 28890ft 522kts
13-Jun-12 18:01 47.003994 133.229982 154 28883ft 522kts
13-Jun-12 18:02 46.874085 133.330900 154 28876ft 522kts
13-Jun-12 18:03 46.746644 133.429360 154 28869ft 522kts
13-Jun-12 18:04 46.617092 133.528910 154 28863ft 522kts
13-Jun-12 18:05 46.487346 133.628066 154 28855ft 522kts
13-Jun-12 18:06 46.358406 133.726074 154 28848ft 522kts
13-Jun-12 18:07 46.229421 133.823592 154 28841ft 522kts
13-Jun-12 18:08 46.100638 133.920439 154 28834ft 522kts
13-Jun-12 18:09 45.970577 134.017727 154 28827ft 522kts
13-Jun-12 18:10 45.841664 134.113646 155 28820ft 522kts
13-Jun-12 18:11 45.712257 134.209428 155 28814ft 522kts
13-Jun-12 18:12 45.583321 134.304363 155 28806ft 522kts
13-Jun-12 18:13 45.453264 134.399624 155 28800ft 522kts
13-Jun-12 18:14 45.322883 134.494625 155 28792ft 522kts
13-Jun-12 18:15 45.194852 134.587433 155 28784ft 522kts
13-Jun-12 18:16 45.062983 134.682533 155 28777ft 522kts
13-Jun-12 18:17 44.933262 134.775600 155 28770ft 522kts
13-Jun-12 18:18 44.803243 134.868408 155 28764ft 522kts
13-Jun-12 18:19 44.672892 134.960979 155 28756ft 522kts
13-Jun-12 18:20 44.543577 135.052352 155 28749ft 522kts
13-Jun-12 18:21 44.413037 135.144128 155 28743ft 522kts
13-Jun-12 18:22 44.282358 135.235541 155 28735ft 522kts
13-Jun-12 18:23 44.152558 135.325889 155 28728ft 522kts
13-Jun-12 18:24 44.023422 135.415331 155 28721ft 522kts
13-Jun-12 18:25 43.891275 135.506406 156 28714ft 522kts
13-Jun-12 18:26 43.760840 135.595858 156 28707ft 522kts
13-Jun-12 18:27 43.630725 135.684656 156 28700ft 522kts
13-Jun-12 18:28 43.500080 135.773383 156 28693ft 522kts
13-Jun-12 18:29 43.378534 135.855545 156 28686ft 522kts
13-Jun-12 18:30 43.237845 135.950187 156 28678ft 522kts
13-Jun-12 18:31 43.130481 136.022084 156 28673ft 522kts
13-Jun-12 18:32 42.997383 136.110821 156 28666ft 522kts
13-Jun-12 18:33 42.866473 136.197680 156 28658ft 522kts
13-Jun-12 18:34 42.738057 136.282487 156 28652ft 522kts
13-Jun-12 18:35 42.603894 136.370670 156 28644ft 522kts
13-Jun-12 18:36 42.473710 136.455834 156 28637ft 522kts
13-Jun-12 18:37 42.342056 136.541557 156 28631ft 522kts
13-Jun-12 18:38 42.210337 136.626925 156 28623ft 522kts
13-Jun-12 18:39 42.078507 136.711967 156 28616ft 522kts
13-Jun-12 18:40 41.947118 136.796335 156 28609ft 522kts
13-Jun-12 18:41 41.818753 136.878386 156 28602ft 522kts
13-Jun-12 18:42 41.683635 136.964362 156 28596ft 522kts
13-Jun-12 18:43 41.552508 137.047413 157 28588ft 522kts
13-Jun-12 18:44 41.420072 137.130914 157 28581ft 522kts
13-Jun-12 18:45 41.288281 137.213634 157 28574ft 522kts
13-Jun-12 18:46 41.156914 137.295720 157 28566ft 522kts
13-Jun-12 18:47 41.024701 137.377965 157 28559ft 522kts
13-Jun-12 18:48 40.895084 137.458243 157 28553ft 522kts
13-Jun-12 18:49 40.760849 137.541023 157 28545ft 522kts
13-Jun-12 18:50 40.628456 137.622291 157 28538ft 522kts
13-Jun-12 18:51 40.497243 137.702482 157 28531ft 522kts
13-Jun-12 18:52 40.365163 137.782855 157 28524ft 522kts
13-Jun-12 18:53 40.231685 137.863727 157 28517ft 522kts
13-Jun-12 18:54 40.102955 137.941388 157 28511ft 522kts
13-Jun-12 18:55 39.967200 138.022938 157 28503ft 522kts
13-Jun-12 18:56 39.834831 138.102108 157 28496ft 522kts
13-Jun-12 18:57 39.702392 138.180984 157 28489ft 522kts
13-Jun-12 18:58 39.571358 138.258695 157 28481ft 522kts
13-Jun-12 18:59 39.437094 138.337986 157 28474ft 522kts
13-Jun-12 19:00 39.303975 138.416269 157 28467ft 522kts
13-Jun-12 19:01 39.172244 138.493412 157 28460ft 522kts
13-Jun-12 19:02 39.038714 138.571284 157 28453ft 522kts
13-Jun-12 19:03 38.906136 138.648281 158 28446ft 522kts
13-Jun-12 19:04 38.773272 138.725126 158 28439ft 522kts
13-Jun-12 19:05 38.641273 138.801160 158 28432ft 522kts
13-Jun-12 19:06 38.517370 138.872252 158 28425ft 522kts
13-Jun-12 19:07 38.396263 138.941445 158 27776ft 532kts
13-Jun-12 19:08 38.259251 139.019393 158 26377ft 540kts
13-Jun-12 19:09 38.123254 139.096514 158 24996ft 543kts
13-Jun-12 19:10 38.006792 139.162320 158 23819ft 545kts
13-Jun-12 19:11 37.866687 139.241178 158 22409ft 547kts
13-Jun-12 19:12 37.727403 139.319240 158 21014ft 550kts
13-Jun-12 19:13 37.589408 139.396259 158 19639ft 552kts
13-Jun-12 19:14 37.449204 139.474183 158 18248ft 554kts
13-Jun-12 19:15 37.308178 139.552240 158 16855ft 556kts
13-Jun-12 19:16 37.165405 139.630940 158 15451ft 559kts
13-Jun-12 19:17 37.020968 139.710238 158 14194ft 558kts
13-Jun-12 19:18 36.881478 139.786531 158 13696ft 553kts
13-Jun-12 19:19 36.737306 139.865055 158 13695ft 552kts
13-Jun-12 19:20 36.596860 139.941210 158 13695ft 551kts
13-Jun-12 19:21 36.456259 140.017141 158 13695ft 551kts
13-Jun-12 19:22 36.313017 140.094158 158 12647ft 559kts
13-Jun-12 19:23 36.170764 140.170371 158 11258ft 560kts
13-Jun-12 19:24 36.025604 140.247853 158 9539ft 564kts
13-Jun-12 19:25 35.891672 140.319575 155 3012ft 402kts
13-Jun-12 19:26 35.823507 140.364562 148 277ft 223kts
13-Jun-12 19:27 35.781298 140.390961 214 146ft 46kts
13-Jun-12 19:28 35.780538 140.389807 265 146ft 0kts

Navigation Log

Ident Type
Flight plan parsing failed, navigation log unavailable